Time;durP1;ratioP1;P1;durP2;ratioP2;P2;SDS_P1;SDS_P2;PMS_P1;PMS_P2;Temp;Humidity;BMP_temperature;BMP_pressure;BME280_temperature;BME280_humidity;BME280_pressure;Samples;Min_cycle;Max_cycle;Signal;HPM_P1;HPM_P2
2023/02/25 00:01:27;;;;;;;22.70;9.50;;;;;;;7.59;76.24;100574.44;4932701;29;20047;-68
2023/02/25 00:03:55;;;;;;;22.08;8.98;;;;;;;7.54;76.08;100581.91;4957066;29;20063;-68
2023/02/25 00:06:24;;;;;;;18.40;8.52;;;;;;;7.35;76.05;100586.56;4930906;29;20043;-69
2023/02/25 00:08:53;;;;;;;23.25;9.02;;;;;;;7.21;76.55;100581.00;4940360;29;20059;-68
2023/02/25 00:11:22;;;;;;;27.02;9.60;;;;;;;7.09;77.30;100582.53;4957071;29;20119;-68
2023/02/25 00:13:53;;;;;;;21.05;9.38;;;;;;;6.87;78.60;100576.81;4941042;29;20525;-68
2023/02/25 00:16:21;;;;;;;25.08;8.85;;;;;;;6.75;79.67;100586.22;4923615;29;20055;-68
2023/02/25 00:18:56;;;;;;;26.40;10.63;;;;;;;7.05;78.92;100582.31;4941097;29;20059;-68
2023/02/25 00:21:24;;;;;;;18.95;8.07;;;;;;;6.91;78.71;100581.38;4957146;29;20047;-68
2023/02/25 00:23:52;;;;;;;23.92;10.75;;;;;;;6.94;79.49;100580.00;4957574;29;20048;-67
2023/02/25 00:26:20;;;;;;;23.05;9.43;;;;;;;6.75;79.69;100579.94;4957223;29;20402;-68
2023/02/25 00:28:49;;;;;;;29.85;10.25;;;;;;;6.83;80.07;100584.78;4953908;29;20051;-68
2023/02/25 00:31:21;;;;;;;28.83;10.63;;;;;;;7.06;79.05;100591.34;4931070;29;20058;-68
2023/02/25 00:33:50;;;;;;;25.60;9.63;;;;;;;6.93;79.03;100584.66;4922740;29;20081;-68
2023/02/25 00:36:21;;;;;;;28.33;9.18;;;;;;;6.82;79.18;100592.19;4945735;29;20051;-68
2023/02/25 00:38:51;;;;;;;27.13;9.80;;;;;;;6.99;78.89;100588.94;4954022;29;20498;-68
2023/02/25 00:41:21;;;;;;;30.17;10.25;;;;;;;7.07;78.13;100598.44;4939647;29;20489;-68
2023/02/25 00:43:51;;;;;;;26.48;9.35;;;;;;;7.08;77.42;100589.13;4956379;28;20505;-68
2023/02/25 00:46:18;;;;;;;27.73;8.23;;;;;;;6.85;77.80;100597.06;4939726;29;20053;-67
2023/02/25 00:48:46;;;;;;;20.88;9.15;;;;;;;6.98;78.20;100591.97;4941323;29;20544;-68
2023/02/25 00:51:17;;;;;;;23.83;9.52;;;;;;;6.68;78.59;100593.97;4962819;28;20047;-68
2023/02/25 00:53:44;;;;;;;;;;;;;;;6.63;78.63;100591.31;4926180;29;20513;-69
2023/02/25 00:56:14;;;;;;;24.95;10.15;;;;;;;6.72;77.93;100580.53;4971244;28;20408;-69
2023/02/25 00:58:46;;;;;;;27.42;9.20;;;;;;;6.67;77.93;100588.78;4969012;28;20058;-69
2023/02/25 01:01:22;;;;;;;24.63;9.10;;;;;;;6.60;78.38;100585.59;4955361;29;20406;-68
2023/02/25 01:03:51;;;;;;;23.55;7.20;;;;;;;6.77;77.76;100585.94;4957738;29;20051;-68
2023/02/25 01:06:19;;;;;;;23.05;7.38;;;;;;;6.83;78.18;100576.56;4939584;29;20059;-69
2023/02/25 01:08:47;;;;;;;26.15;7.93;;;;;;;6.94;77.60;100588.22;4939791;29;20047;-67
2023/02/25 01:11:19;;;;;;;24.48;7.93;;;;;;;7.10;76.27;100586.91;4954939;29;20066;-67
2023/02/25 01:13:48;;;;;;;20.40;7.38;;;;;;;7.23;75.56;100591.66;4956885;29;20363;-69
2023/02/25 01:16:19;;;;;;;21.88;7.85;;;;;;;7.09;75.97;100588.03;4956138;29;20047;-68
2023/02/25 01:18:47;;;;;;;20.90;7.80;;;;;;;6.62;77.39;100597.91;4941181;29;20556;-68
2023/02/25 01:21:18;;;;;;;27.02;9.63;;;;;;;6.98;77.48;100597.47;4938550;29;20051;-67
2023/02/25 01:23:47;;;;;;;18.20;7.47;;;;;;;7.13;76.31;100591.81;4958409;29;20051;-68
2023/02/25 01:26:15;;;;;;;19.90;6.72;;;;;;;7.01;76.48;100596.91;4968636;28;20115;-68
2023/02/25 01:28:43;;;;;;;21.80;7.35;;;;;;;6.63;77.70;100596.78;4956216;29;20051;-69
2023/02/25 01:31:18;;;;;;;20.45;6.25;;;;;;;6.70;78.01;100599.16;4954373;29;20050;-67
2023/02/25 01:33:45;;;;;;;19.60;6.00;;;;;;;6.95;76.78;100589.84;4940930;29;20047;-68
2023/02/25 01:36:13;;;;;;;12.35;4.70;;;;;;;6.72;76.90;100595.03;4956140;29;20059;-68
2023/02/25 01:38:40;;;;;;;15.40;4.60;;;;;;;6.70;77.57;100596.41;4957429;29;20055;-68
2023/02/25 01:41:08;;;;;;;21.17;4.68;;;;;;;6.95;77.29;100590.66;4940793;29;20051;-69
2023/02/25 01:43:37;;;;;;;20.23;3.90;;;;;;;6.93;77.43;100603.00;4960987;29;20054;-68
2023/02/25 01:46:05;;;;;;;11.75;4.53;;;;;;;6.82;78.32;100600.38;4959318;29;20059;-67
2023/02/25 01:48:36;;;;;;;21.08;5.28;;;;;;;6.82;78.24;100592.19;4928659;29;20058;-68
2023/02/25 01:51:08;;;;;;;14.45;4.50;;;;;;;6.53;79.57;100596.88;4941991;29;20051;-68
2023/02/25 01:53:46;;;;;;;18.77;5.60;;;;;;;6.80;78.67;100594.38;4961583;29;20067;-68
2023/02/25 01:56:17;;;;;;;27.73;4.88;;;;;;;6.81;78.08;100595.22;4960616;28;20047;-68
2023/02/25 01:58:44;;;;;;;24.73;5.13;;;;;;;6.60;78.22;100593.81;4956958;29;20062;-67
2023/02/25 02:01:13;;;;;;;19.13;5.22;;;;;;;6.47;78.78;100580.78;4958836;28;20051;-68
2023/02/25 02:03:41;;;;;;;22.10;4.32;;;;;;;6.69;78.79;100587.38;4941072;29;20055;-68
2023/02/25 02:06:19;;;;;;;13.00;4.47;;;;;;;6.92;77.37;100580.31;4948332;29;20051;-68
2023/02/25 02:08:48;;;;;;;17.90;4.85;;;;;;;6.99;76.35;100585.41;4928574;29;20059;-69
2023/02/25 02:11:16;;;;;;;17.10;4.10;;;;;;;6.68;76.85;100580.28;4954068;29;20054;-69
2023/02/25 02:13:47;;;;;;;14.95;4.25;;;;;;;6.79;76.76;100581.00;4956427;29;20059;-68
2023/02/25 02:16:34;;;;;;;18.58;3.70;;;;;;;6.67;76.88;100567.72;4952320;29;20047;-68
2023/02/25 02:19:31;;;;;;;15.27;3.72;;;;;;;6.85;76.78;100569.69;4940485;29;20068;-69
2023/02/25 02:22:35;;;;;;;16.30;3.80;;;;;;;6.65;77.41;100583.63;4953605;29;20058;-69
2023/02/25 02:25:19;;;;;;;18.90;3.92;;;;;;;6.56;78.77;100579.06;4960819;29;20055;-69
2023/02/25 02:28:04;;;;;;;17.73;5.00;;;;;;;6.55;78.43;100570.06;4958745;29;20063;-69
2023/02/25 02:31:00;;;;;;;13.90;4.10;;;;;;;6.60;78.74;100575.47;4958867;28;20062;-68
2023/02/25 02:33:39;;;;;;;19.73;4.80;;;;;;;6.47;79.01;100565.19;4933179;29;20051;-68
2023/02/25 02:36:18;;;;;;;22.60;4.13;;;;;;;6.75;78.46;100569.81;4930252;29;20159;-69
2023/02/25 02:38:53;;;;;;;16.45;4.70;;;;;;;6.69;78.13;100570.97;4959472;29;20055;-67
2023/02/25 02:41:36;;;;;;;20.25;5.70;;;;;;;6.57;78.76;100580.72;4958239;29;20054;-69
2023/02/25 02:44:41;;;;;;;16.55;4.13;;;;;;;6.28;79.94;100574.44;4958810;29;20055;-68
2023/02/25 02:47:13;;;;;;;17.70;4.65;;;;;;;6.42;79.68;100569.91;4912345;29;20460;-68
2023/02/25 02:49:50;;;;;;;15.07;5.72;;;;;;;6.32;80.37;100579.03;4960235;29;20070;-68
2023/02/25 02:52:23;;;;;;;17.93;4.90;;;;;;;6.38;80.17;100571.63;4963897;28;20058;-69
2023/02/25 02:55:06;;;;;;;19.33;5.78;;;;;;;6.45;79.93;100574.81;4942568;29;20414;-69
2023/02/25 02:57:35;;;;;;;17.45;5.18;;;;;;;6.26;80.59;100579.41;4941704;29;20047;-69
2023/02/25 03:00:16;;;;;;;19.35;4.82;;;;;;;6.35;80.43;100577.63;4942524;29;20363;-68
2023/02/25 03:03:12;;;;;;;22.40;4.95;;;;;;;6.35;80.05;100581.19;4941505;29;20077;-69
2023/02/25 03:05:41;;;;;;;19.30;5.28;;;;;;;6.18;81.23;100588.19;4935287;29;20067;-68
2023/02/25 03:08:14;;;;;;;17.23;4.65;;;;;;;6.02;81.96;100595.72;4958958;29;20047;-68
2023/02/25 03:10:43;;;;;;;13.98;4.40;;;;;;;6.07;82.81;100601.16;4957254;28;20055;-68
2023/02/25 03:13:11;;;;;;;20.77;4.72;;;;;;;6.23;82.62;100585.41;4942430;29;20074;-68
2023/02/25 03:15:39;;;;;;;18.38;4.50;;;;;;;6.29;81.75;100585.09;4924118;29;20055;-67
2023/02/25 03:18:15;;;;;;;16.95;5.18;;;;;;;6.26;81.88;100585.66;4941891;28;20051;-67
2023/02/25 03:20:46;;;;;;;19.10;4.88;;;;;;;5.96;82.04;100590.59;4941072;29;20065;-68
2023/02/25 03:23:17;;;;;;;16.85;4.05;;;;;;;5.83;82.95;100602.16;4958955;29;20059;-68
2023/02/25 03:25:47;;;;;;;19.77;4.82;;;;;;;6.00;82.95;100592.47;4940941;29;21116;-67
2023/02/25 03:28:29;;;;;;;16.52;4.65;;;;;;;6.17;82.25;100592.84;4927798;29;20082;-67
2023/02/25 03:31:05;;;;;;;21.65;5.18;;;;;;;6.28;81.48;100590.84;4939585;29;20059;-67
2023/02/25 03:33:47;;;;;;;17.42;4.40;;;;;;;6.32;80.82;100589.16;4942448;29;20047;-68
2023/02/25 03:36:27;;;;;;;18.27;4.30;;;;;;;6.46;79.81;100599.16;4941138;29;20051;-68
2023/02/25 03:38:59;;;;;;;23.05;3.67;;;;;;;6.36;80.30;100585.56;4926948;29;20054;-68
2023/02/25 03:41:30;;;;;;;13.52;4.35;;;;;;;6.57;79.50;100580.72;4939355;29;20051;-68
2023/02/25 03:43:58;;;;;;;17.48;4.13;;;;;;;6.56;79.36;100590.84;4958010;29;20054;-68
2023/02/25 03:46:26;;;;;;;11.45;4.32;;;;;;;6.31;79.65;100585.59;4923857;29;20043;-68
2023/02/25 03:48:55;;;;;;;17.17;4.47;;;;;;;6.53;79.88;100602.38;4973934;28;20071;-68
2023/02/25 03:51:27;;;;;;;13.30;4.68;;;;;;;6.11;80.05;100601.38;4956563;29;20052;-68
2023/02/25 03:53:54;;;;;;;21.77;6.35;;;;;;;6.18;80.04;100599.13;4925060;29;20051;-69
2023/02/25 03:56:27;;;;;;;22.40;4.95;;;;;;;6.07;79.69;100592.94;4940127;29;20055;-68
2023/02/25 03:58:55;;;;;;;21.23;5.05;;;;;;;6.06;80.06;100594.06;4958004;29;20051;-68
2023/02/25 04:01:28;;;;;;;18.73;5.32;;;;;;;6.20;79.05;100589.56;4954600;29;20050;-68
2023/02/25 04:03:55;;;;;;;18.45;4.63;;;;;;;6.07;78.94;100606.63;4937899;29;20047;-67
2023/02/25 04:06:24;;;;;;;16.40;4.32;;;;;;;6.34;78.50;100604.19;4940279;29;20055;-68
2023/02/25 04:08:52;;;;;;;24.27;4.43;;;;;;;5.98;79.61;100611.06;4942249;29;20051;-68
2023/02/25 04:11:19;;;;;;;19.42;4.65;;;;;;;6.06;78.53;100610.47;4969807;28;20051;-68
2023/02/25 04:13:48;;;;;;;17.70;4.05;;;;;;;6.11;79.12;100615.88;4926200;29;20050;-68
2023/02/25 04:16:16;;;;;;;24.92;5.57;;;;;;;5.96;79.72;100618.75;4957151;28;20787;-68
2023/02/25 04:18:44;;;;;;;17.52;4.50;;;;;;;5.85;79.84;100630.84;4925111;29;20047;-68
2023/02/25 04:21:35;;;;;;;19.75;4.65;;;;;;;5.81;80.59;100631.66;4939983;29;20039;-68
2023/02/25 04:24:05;;;;;;;16.10;3.63;;;;;;;5.93;79.76;100634.91;4957142;29;20043;-67
2023/02/25 04:26:33;;;;;;;18.00;4.22;;;;;;;5.91;79.48;100637.09;4957083;29;20055;-69
2023/02/25 04:29:01;;;;;;;21.48;4.68;;;;;;;6.03;79.81;100629.34;4957510;29;20058;-69
2023/02/25 04:31:29;;;;;;;18.92;4.78;;;;;;;6.06;79.29;100634.25;4955980;29;20108;-68
2023/02/25 04:33:57;;;;;;;14.82;3.88;;;;;;;6.04;79.04;100634.53;4939224;29;20058;-69
2023/02/25 04:36:30;;;;;;;16.45;3.80;;;;;;;5.82;80.03;100633.31;4953405;28;20051;-69
2023/02/25 04:39:00;;;;;;;17.00;4.13;;;;;;;6.07;79.14;100636.69;4941942;29;20055;-69
2023/02/25 04:41:30;;;;;;;23.13;4.90;;;;;;;6.16;78.68;100634.97;4939590;29;20058;-69
2023/02/25 04:43:58;;;;;;;12.77;3.40;;;;;;;5.91;79.13;100642.56;4958670;29;20043;-68
2023/02/25 04:46:25;;;;;;;18.40;4.07;;;;;;;6.15;79.04;100632.53;4954927;29;20059;-69
2023/02/25 04:48:53;;;;;;;16.55;3.63;;;;;;;6.25;77.90;100637.91;4941747;29;20066;-69
2023/02/25 04:51:21;;;;;;;13.65;3.95;;;;;;;6.16;77.87;100637.72;4940421;29;20047;-67
2023/02/25 04:53:48;;;;;;;20.65;3.70;;;;;;;6.24;77.59;100639.81;4956484;29;20055;-68
2023/02/25 04:56:15;;;;;;;21.15;4.03;;;;;;;5.97;78.49;100638.69;4956203;29;20067;-69
2023/02/25 04:58:43;;;;;;;13.48;3.75;;;;;;;5.87;79.14;100639.59;4941589;29;20043;-70
2023/02/25 05:01:11;;;;;;;17.63;3.70;;;;;;;6.01;78.52;100635.13;4955495;29;20051;-69
2023/02/25 05:03:39;;;;;;;22.65;4.30;;;;;;;6.05;78.85;100627.94;4957930;29;20059;-68
2023/02/25 05:06:07;;;;;;;17.00;3.85;;;;;;;6.01;79.25;100642.50;4940062;29;20066;-70
2023/02/25 05:08:35;;;;;;;19.75;4.15;;;;;;;6.01;78.73;100631.56;4957336;29;20062;-68
2023/02/25 05:11:03;;;;;;;22.55;4.10;;;;;;;6.07;78.45;100631.22;4956785;29;20477;-68
2023/02/25 05:13:31;;;;;;;18.35;3.85;;;;;;;5.84;78.97;100631.94;4957459;29;20356;-67
2023/02/25 05:16:10;;;;;;;16.95;3.90;;;;;;;6.02;79.08;100636.72;4927563;29;20066;-67
2023/02/25 05:18:39;;;;;;;17.23;3.75;;;;;;;6.23;78.39;100630.00;4961713;29;20055;-67
2023/02/25 05:21:11;;;;;;;17.60;3.38;;;;;;;6.26;78.42;100639.56;4959902;29;20051;-68
2023/02/25 05:23:40;;;;;;;15.38;3.60;;;;;;;6.12;78.66;100636.66;4943697;29;20059;-67
2023/02/25 05:26:08;;;;;;;25.15;3.90;;;;;;;6.29;78.52;100638.97;4959390;29;20411;-68
2023/02/25 05:28:36;;;;;;;19.92;4.20;;;;;;;5.79;80.62;100639.34;4944913;29;20054;-66
2023/02/25 05:31:07;;;;;;;15.38;3.47;;;;;;;5.97;80.14;100647.72;4959242;29;20051;-67
2023/02/25 05:33:36;;;;;;;26.70;3.50;;;;;;;5.94;79.65;100636.53;4961151;29;20062;-67
2023/02/25 05:36:08;;;;;;;24.58;3.47;;;;;;;5.65;80.47;100639.13;4960103;29;20060;-67
2023/02/25 05:38:36;;;;;;;20.73;4.03;;;;;;;5.64;81.17;100621.13;4944819;29;20455;-67
2023/02/25 05:41:07;;;;;;;16.40;3.67;;;;;;;5.61;81.36;100635.38;4960556;29;20059;-68
2023/02/25 05:43:35;;;;;;;27.05;4.80;;;;;;;5.73;80.71;100633.09;4942891;29;20063;-67
2023/02/25 05:46:03;;;;;;;20.63;4.40;;;;;;;5.68;80.43;100638.59;4959776;29;20051;-68
2023/02/25 05:48:31;;;;;;;18.08;3.85;;;;;;;5.45;81.08;100626.44;4942638;29;20062;-67
2023/02/25 05:51:04;;;;;;;19.95;3.85;;;;;;;5.44;81.29;100632.19;4959697;29;20062;-68
2023/02/25 05:53:32;;;;;;;21.58;4.10;;;;;;;5.52;81.21;100628.84;4960455;29;20070;-67
2023/02/25 05:56:04;;;;;;;23.58;4.63;;;;;;;5.39;82.58;100630.28;4959339;29;20058;-67
2023/02/25 05:58:31;;;;;;;25.15;3.90;;;;;;;5.47;82.18;100629.69;4960016;29;20047;-69
2023/02/25 06:00:59;;;;;;;17.08;3.17;;;;;;;5.52;81.65;100635.16;4959365;29;20054;-67
2023/02/25 06:03:27;;;;;;;22.85;4.13;;;;;;;5.50;81.95;100640.06;4940769;29;20525;-69
2023/02/25 06:05:54;;;;;;;18.85;3.90;;;;;;;5.44;82.31;100634.91;4942588;29;20047;-69
2023/02/25 06:08:22;;;;;;;17.63;4.35;;;;;;;5.32;82.43;100640.69;4961010;29;20055;-68
2023/02/25 06:10:49;;;;;;;25.95;4.38;;;;;;;5.35;82.61;100633.88;4959309;29;20055;-68
2023/02/25 06:13:16;;;;;;;17.75;4.10;;;;;;;5.49;81.03;100640.34;4958720;29;20059;-67
2023/02/25 06:15:43;;;;;;;23.75;3.75;;;;;;;5.53;80.90;100644.97;4959276;29;20047;-70
2023/02/25 06:18:11;;;;;;;23.50;3.90;;;;;;;5.31;81.88;100655.47;4959936;29;20058;-69
2023/02/25 06:20:39;;;;;;;16.20;3.65;;;;;;;5.26;82.37;100646.47;4958477;28;20062;-68
2023/02/25 06:23:06;;;;;;;19.55;3.10;;;;;;;5.27;82.29;100653.56;4975279;28;20156;-68
2023/02/25 06:25:34;;;;;;;20.83;3.50;;;;;;;5.39;81.70;100651.31;4957341;28;20051;-68
2023/02/25 06:28:02;;;;;;;25.95;3.70;;;;;;;5.40;81.40;100650.22;4960193;29;20058;-68
2023/02/25 06:30:29;;;;;;;15.63;3.50;;;;;;;5.23;81.73;100657.97;4959623;29;20055;-68
2023/02/25 06:32:57;;;;;;;18.40;3.08;;;;;;;5.40;81.54;100652.97;4958370;29;20055;-68
2023/02/25 06:35:25;;;;;;;19.17;3.20;;;;;;;5.37;80.62;100648.88;4958424;29;20058;-68
2023/02/25 06:37:56;;;;;;;16.38;3.60;;;;;;;5.04;81.92;100655.00;4959329;29;20055;-69
2023/02/25 06:40:24;;;;;;;17.70;3.70;;;;;;;4.87;82.72;100654.53;4959751;29;20386;-66
2023/02/25 06:42:51;;;;;;;11.07;2.88;;;;;;;5.16;81.78;100662.91;4941743;29;20491;-67
2023/02/25 06:45:19;;;;;;;23.27;4.68;;;;;;;5.14;82.54;100662.38;4942969;29;20491;-67
2023/02/25 06:47:47;;;;;;;20.52;3.70;;;;;;;5.12;81.85;100656.34;4958420;29;20066;-67
2023/02/25 06:50:14;;;;;;;22.00;3.78;;;;;;;5.11;81.90;100660.19;4942346;29;20051;-68
2023/02/25 06:52:42;;;;;;;17.88;3.20;;;;;;;4.96;82.02;100654.78;4942038;29;20059;-67
2023/02/25 06:55:09;;;;;;;21.52;4.45;;;;;;;5.08;82.02;100667.03;4959425;29;20064;-67
2023/02/25 06:57:37;;;;;;;17.35;2.95;;;;;;;5.09;81.50;100670.56;4954453;29;20051;-69
2023/02/25 07:00:05;;;;;;;21.23;3.60;;;;;;;5.03;81.73;100677.97;4940035;29;20048;-69
2023/02/25 07:02:33;;;;;;;24.38;4.60;;;;;;;4.77;82.80;100681.84;4953520;29;20055;-68
2023/02/25 07:05:01;;;;;;;17.60;3.58;;;;;;;4.76;83.09;100693.03;4941953;29;20062;-68
2023/02/25 07:07:29;;;;;;;16.30;3.30;;;;;;;4.98;82.28;100688.91;4941277;29;20081;-68
2023/02/25 07:09:56;;;;;;;19.02;3.65;;;;;;;5.25;81.62;100696.69;4957613;29;20062;-68
2023/02/25 07:12:24;;;;;;;20.23;3.42;;;;;;;5.40;80.44;100692.03;4957171;29;20414;-66
2023/02/25 07:14:51;;;;;;;17.10;3.13;;;;;;;5.36;80.23;100696.41;4959582;29;20054;-66
2023/02/25 07:17:18;;;;;;;18.77;2.97;;;;;;;5.18;80.79;100683.34;4958095;29;20405;-67
2023/02/25 07:19:46;;;;;;;24.98;4.15;;;;;;;5.13;81.50;100690.75;4958164;29;20039;-67
2023/02/25 07:22:15;;;;;;;20.85;3.80;;;;;;;5.24;81.71;100690.44;4954260;29;20055;-66
2023/02/25 07:24:43;;;;;;;15.65;3.58;;;;;;;5.34;80.07;100689.56;4958313;29;20059;-67
2023/02/25 07:27:12;;;;;;;20.08;3.55;;;;;;;5.32;80.33;100694.50;4961023;28;20533;-67
2023/02/25 07:29:40;;;;;;;22.05;4.18;;;;;;;5.39;80.33;100689.53;4957626;29;20047;-68
2023/02/25 07:32:07;;;;;;;18.73;3.55;;;;;;;5.62;79.58;100689.72;4951229;29;20054;-67
2023/02/25 07:34:38;;;;;;;15.30;3.20;;;;;;;5.67;78.61;100694.31;4954008;29;20317;-69
2023/02/25 07:37:06;;;;;;;20.92;3.53;;;;;;;5.39;78.94;100701.28;4957560;28;20047;-69
2023/02/25 07:39:33;;;;;;;14.75;3.22;;;;;;;5.28;78.59;100696.97;4961247;28;20173;-67
2023/02/25 07:42:01;;;;;;;13.68;3.17;;;;;;;5.29;77.77;100701.34;4925440;29;20411;-68
2023/02/25 07:44:28;;;;;;;16.88;3.28;;;;;;;5.16;78.66;100703.84;4938998;29;20051;-67
2023/02/25 07:46:56;;;;;;;18.33;3.70;;;;;;;5.40;78.04;100710.31;4952651;29;20114;-68
2023/02/25 07:49:23;;;;;;;20.10;3.30;;;;;;;5.49;77.23;100717.63;4960202;28;20051;-69
2023/02/25 07:51:51;;;;;;;18.88;3.55;;;;;;;5.42;76.96;100710.84;4956795;28;20062;-67
2023/02/25 07:54:20;;;;;;;16.73;3.83;;;;;;;5.54;76.40;100722.28;4947847;28;20132;-70
2023/02/25 07:56:50;;;;;;;16.30;3.33;;;;;;;5.45;76.54;100718.50;4955305;29;20051;-71
2023/02/25 07:59:18;;;;;;;15.35;3.17;;;;;;;5.51;76.14;100711.88;4962347;28;20051;-72
2023/02/25 08:01:45;;;;;;;17.88;3.55;;;;;;;5.36;76.59;100712.78;4964550;28;20062;-66
2023/02/25 08:04:13;;;;;;;26.77;3.88;;;;;;;5.60;75.98;100715.69;4957375;28;20047;-68
2023/02/25 08:06:41;;;;;;;13.70;3.08;;;;;;;5.79;74.96;100721.34;4945956;28;20039;-69
2023/02/25 08:09:12;;;;;;;16.20;3.30;;;;;;;5.79;75.03;100719.41;4955649;28;20062;-69
2023/02/25 08:11:40;;;;;;;19.95;3.83;;;;;;;6.05;74.14;100728.31;4938891;29;20078;-69
2023/02/25 08:14:07;;;;;;;17.73;3.35;;;;;;;5.59;74.82;100719.53;4951378;28;20055;-69
2023/02/25 08:16:36;;;;;;;19.45;3.42;;;;;;;5.44;75.10;100717.66;4954449;29;20047;-67
2023/02/25 08:19:05;;;;;;;17.85;3.70;;;;;;;5.69;75.01;100730.38;4956449;29;20074;-67
2023/02/25 08:21:32;;;;;;;15.43;3.22;;;;;;;5.82;74.27;100728.97;4922391;29;20051;-67
2023/02/25 08:24:00;;;;;;;19.05;3.53;;;;;;;5.70;74.28;100723.84;4954738;28;20039;-68
2023/02/25 08:26:27;;;;;;;20.60;3.25;;;;;;;5.65;74.10;100726.56;4954937;29;20066;-71
2023/02/25 08:28:56;;;;;;;15.52;3.63;;;;;;;5.75;73.72;100730.06;4959065;28;20047;-69
2023/02/25 08:31:23;;;;;;;16.65;4.20;;;;;;;5.96;73.20;100722.63;4919695;29;20059;-68
2023/02/25 08:33:52;;;;;;;24.70;4.60;;;;;;;5.92;73.45;100723.47;4951414;28;20058;-67
2023/02/25 08:36:25;;;;;;;17.65;4.82;;;;;;;5.99;72.30;100724.78;4935507;29;20051;-69
2023/02/25 08:38:53;;;;;;;20.63;3.38;;;;;;;5.66;72.80;100728.22;4938507;29;20062;-68
2023/02/25 08:41:21;;;;;;;20.15;3.33;;;;;;;5.81;72.82;100733.59;4920688;29;20059;-68
2023/02/25 08:43:53;;;;;;;17.25;3.47;;;;;;;5.79;73.01;100732.28;4956324;28;20510;-68
2023/02/25 08:46:24;;;;;;;25.88;3.38;;;;;;;5.81;73.35;100725.41;4936820;29;20047;-68
2023/02/25 08:48:53;;;;;;;20.23;3.58;;;;;;;5.95;72.55;100737.38;4957028;28;20537;-69
2023/02/25 08:51:22;;;;;;;16.02;2.70;;;;;;;5.71;72.59;100722.72;4944990;29;20066;-68
2023/02/25 08:53:51;;;;;;;23.60;3.60;;;;;;;5.83;73.22;100725.16;4961475;29;20047;-71
2023/02/25 08:56:18;;;;;;;24.00;4.28;;;;;;;5.87;72.94;100727.06;4936472;29;20051;-67
2023/02/25 08:58:46;;;;;;;20.67;3.97;;;;;;;5.81;73.00;100719.94;4961704;29;20051;-68
2023/02/25 09:01:16;;;;;;;16.90;3.60;;;;;;;5.57;73.41;100730.72;4955406;29;20073;-67
2023/02/25 09:03:52;;;;;;;19.23;3.63;;;;;;;5.51;73.56;100722.81;4958449;28;20051;-68
2023/02/25 09:06:22;;;;;;;22.63;4.25;;;;;;;5.82;72.55;100726.22;4927736;29;20054;-70
2023/02/25 09:08:50;;;;;;;;;;;;;;;5.85;71.82;100722.97;4952006;28;20055;-68
2023/02/25 09:11:19;;;;;;;17.23;3.33;;;;;;;5.93;71.93;100714.97;4923087;29;19929;-68
2023/02/25 09:13:46;;;;;;;22.08;3.80;;;;;;;5.95;71.74;100722.88;4960628;28;20070;-69
2023/02/25 09:16:17;;;;;;;17.35;3.30;;;;;;;6.04;71.42;100722.03;4955917;29;20048;-68
2023/02/25 09:18:46;;;;;;;22.15;4.35;;;;;;;6.15;70.66;100718.13;4942121;29;20074;-68
2023/02/25 09:21:14;;;;;;;16.05;3.47;;;;;;;6.11;70.32;100724.44;4957648;29;20078;-66
2023/02/25 09:23:42;;;;;;;13.95;2.80;;;;;;;6.23;68.30;100711.22;4962525;28;20486;-68
2023/02/25 09:26:10;;;;;;;20.02;3.42;;;;;;;6.34;68.46;100708.16;4932419;29;20339;-70
2023/02/25 09:28:37;;;;;;;20.08;3.28;;;;;;;6.52;67.69;100715.63;4955608;29;20043;-68
2023/02/25 09:31:05;;;;;;;15.43;3.45;;;;;;;6.71;66.83;100719.28;4951278;29;20710;-68
2023/02/25 09:33:33;;;;;;;18.75;2.75;;;;;;;6.31;67.26;100714.16;4955205;28;20679;-66
2023/02/25 09:36:08;;;;;;;15.10;3.05;;;;;;;6.40;66.55;100722.56;4954278;28;20517;-66
2023/02/25 09:38:37;;;;;;;18.02;3.17;;;;;;;6.34;66.74;100716.34;4955415;29;20051;-67
2023/02/25 09:41:30;;;;;;;16.15;3.20;;;;;;;6.54;66.75;100716.16;4957403;28;20474;-67
2023/02/25 09:44:19;;;;;;;21.27;4.65;;;;;;;6.63;66.95;100708.97;4920075;28;20059;-68
2023/02/25 09:46:51;;;;;;;17.65;3.70;;;;;;;6.89;67.34;100716.97;4935763;29;20058;-68
2023/02/25 09:49:23;;;;;;;22.60;4.25;;;;;;;6.80;67.98;100716.75;4934323;29;20058;-67
2023/02/25 09:51:57;;;;;;;23.48;3.95;;;;;;;6.75;68.35;100720.34;4952617;28;20058;-67
2023/02/25 09:54:38;;;;;;;15.05;4.32;;;;;;;6.75;68.94;100714.06;4935567;29;20283;-68
2023/02/25 09:57:09;;;;;;;18.17;3.40;;;;;;;6.89;66.91;100731.44;4951824;28;20043;-66
2023/02/25 09:59:37;;;;;;;14.80;3.00;;;;;;;6.66;65.54;100722.09;4928292;29;20062;-68
2023/02/25 10:02:35;;;;;;;25.30;3.70;;;;;;;6.58;66.11;100716.41;4935507;29;20051;-70
2023/02/25 10:05:06;;;;;;;20.38;3.45;;;;;;;6.48;66.37;100714.59;4956767;28;20066;-72
2023/02/25 10:07:52;;;;;;;16.38;4.47;;;;;;;6.64;66.29;100715.28;4955258;28;20043;-69
2023/02/25 10:10:25;;;;;;;21.13;3.85;;;;;;;6.76;64.97;100727.44;4933171;28;20064;-68
2023/02/25 10:13:07;;;;;;;18.00;4.00;;;;;;;6.65;65.14;100727.84;4935812;29;20066;-69
2023/02/25 10:15:40;;;;;;;17.67;3.00;;;;;;;6.62;64.84;100714.75;4951254;28;20074;-68
2023/02/25 10:19:11;;;;;;;18.33;3.60;;;;;;;6.77;65.06;100720.88;4954908;29;20047;-70
2023/02/25 10:21:45;;;;;;;21.20;3.88;;;;;;;6.79;64.33;100726.91;4873556;29;20052;-68
2023/02/25 10:24:19;;;;;;;16.75;3.08;;;;;;;6.93;64.69;100721.56;4926265;28;20051;-68
2023/02/25 10:26:55;;;;;;;22.95;4.45;;;;;;;6.98;63.82;100713.28;4940456;29;20066;-67
2023/02/25 10:29:30;;;;;;;16.25;4.05;;;;;;;6.95;63.06;100716.63;4956296;29;20058;-68
2023/02/25 10:31:59;;;;;;;16.58;3.03;;;;;;;6.98;61.95;100732.47;4934053;28;20088;-68
2023/02/25 10:34:28;;;;;;;14.73;3.50;;;;;;;7.03;62.06;100707.75;4956212;28;20043;-68
2023/02/25 10:36:57;;;;;;;16.05;3.72;;;;;;;7.14;61.93;100712.03;4937581;29;20059;-68
2023/02/25 10:39:26;;;;;;;17.15;3.13;;;;;;;7.10;61.75;100704.66;4950960;28;20495;-68
2023/02/25 10:41:54;;;;;;;19.52;3.45;;;;;;;6.92;62.63;100706.25;4924705;29;20047;-68
2023/02/25 10:44:21;;;;;;;18.30;3.83;;;;;;;7.11;62.65;100706.31;4940341;29;20047;-68
2023/02/25 10:46:53;;;;;;;19.45;4.28;;;;;;;6.93;62.47;100713.34;4940046;29;20471;-68
2023/02/25 10:49:26;;;;;;;11.57;3.03;;;;;;;7.04;62.38;100716.78;4938959;29;20407;-68
2023/02/25 10:52:04;;;;;;;33.38;13.73;;;;;;;7.18;61.21;100709.53;4954198;28;20051;-68
2023/02/25 10:54:34;;;;;;;14.60;3.60;;;;;;;7.13;61.00;100704.09;4955704;28;20048;-69
2023/02/25 10:57:07;;;;;;;20.88;5.85;;;;;;;7.28;59.49;100704.75;4952663;28;20062;-69
2023/02/25 10:59:38;;;;;;;17.35;3.65;;;;;;;7.38;59.01;100701.06;4948879;28;20475;-70
2023/02/25 11:02:22;;;;;;;23.05;4.40;;;;;;;7.62;58.29;100704.56;4954643;28;20047;-68
2023/02/25 11:04:51;;;;;;;16.80;3.28;;;;;;;7.45;57.13;100702.34;4956688;29;20043;-68
2023/02/25 11:07:42;;;;;;;16.13;2.97;;;;;;;7.41;54.85;100695.00;4954164;28;20051;-69
2023/02/25 11:10:13;;;;;;;15.75;2.70;;;;;;;7.31;53.63;100698.66;4949972;28;20059;-68
2023/02/25 11:12:45;;;;;;;19.45;6.57;;;;;;;7.27;53.45;100697.63;4955663;28;20051;-69
2023/02/25 11:15:35;;;;;;;19.83;5.95;;;;;;;7.53;53.33;100679.75;4955922;29;20062;-69
2023/02/25 11:18:26;;;;;;;12.38;3.20;;;;;;;7.48;52.80;100679.81;4958562;28;20402;-69
2023/02/25 11:20:58;;;;;;;11.70;2.85;;;;;;;7.56;51.87;100683.84;4954660;28;20066;-69
2023/02/25 11:23:37;;;;;;;16.55;2.90;;;;;;;7.82;50.63;100685.94;4940256;28;20394;-68
2023/02/25 11:26:05;;;;;;;12.43;2.60;;;;;;;7.80;49.87;100681.84;4954717;28;20059;-68
2023/02/25 11:28:39;;;;;;;10.38;2.28;;;;;;;7.68;49.90;100684.22;4956152;28;20035;-72
2023/02/25 11:31:28;;;;;;;11.00;2.47;;;;;;;7.89;50.21;100669.94;4936612;28;20070;-69
2023/02/25 11:33:59;;;;;;;12.80;2.78;;;;;;;7.85;50.71;100679.03;4935463;29;20052;-68
2023/02/25 11:36:30;;;;;;;11.82;2.28;;;;;;;7.55;52.06;100683.00;4956417;28;20054;-69
2023/02/25 11:39:19;;;;;;;13.93;2.90;;;;;;;7.51;52.44;100675.69;4953076;28;20055;-69
2023/02/25 11:41:49;;;;;;;13.50;3.42;;;;;;;7.72;52.41;100671.56;4948066;28;20047;-69
2023/02/25 11:44:23;;;;;;;13.38;2.97;;;;;;;7.92;51.91;100672.09;4938625;29;20402;-70
2023/02/25 11:46:56;;;;;;;13.48;3.38;;;;;;;8.00;50.76;100676.09;4954758;29;20051;-69